Time,TemperatureF,DewpointF,PressureIn,WindDirection,WindDirectionDegrees,WindSpeedMPH,WindSpeedGustMPH,Humidity,HourlyPrecipIn,Conditions,Clouds,dailyrainin,SolarRadiationWatts/m^2,SoftwareType,DateUTC
2013-10-04 00:00:00,66.0,65.0,-100.00,SSE,157,5.0,-999.0,96,-99.99,,,-99.99,0.000000,,2013-10-04 04:00:00,
2013-10-04 00:51:00,66.0,65.0,-100.00,SSE,157,5.0,-999.0,96,-99.99,,,-99.99,0.000000,,2013-10-04 04:51:00,
2013-10-04 01:00:00,65.0,65.0,-100.00,SSW,202,3.0,-999.0,98,0.04,,,-99.99,0.000000,,2013-10-04 05:00:00,
2013-10-04 01:50:00,65.0,65.0,-100.00,SSW,202,3.0,-999.0,98,0.04,,,-99.99,0.000000,,2013-10-04 05:50:00,
2013-10-04 01:59:00,65.0,65.0,-100.00,SSW,202,3.0,-999.0,98,0.04,,,-99.99,0.000000,,2013-10-04 05:59:00,
2013-10-04 02:00:00,65.0,65.0,-100.00,South,180,4.0,-999.0,97,-99.99,,,-99.99,0.000000,,2013-10-04 06:00:00,
2013-10-04 02:49:00,65.0,65.0,-100.00,South,180,4.0,-999.0,97,-99.99,,,-99.99,0.000000,,2013-10-04 06:49:00,
2013-10-04 02:58:00,65.0,65.0,-100.00,South,180,4.0,-999.0,97,-99.99,,,-99.99,0.000000,,2013-10-04 06:58:00,
2013-10-04 03:00:00,66.0,65.0,-100.00,SSW,202,3.0,-999.0,96,-99.99,,,-99.99,0.000000,,2013-10-04 07:00:00,
2013-10-04 03:49:00,66.0,65.0,-100.00,SSW,202,3.0,-999.0,96,-99.99,,,-99.99,0.000000,,2013-10-04 07:49:00,
2013-10-04 03:58:00,66.0,65.0,-100.00,SSW,202,3.0,-999.0,96,-99.99,,,-99.99,0.000000,,2013-10-04 07:58:00,
2013-10-04 05:00:00,65.0,64.0,-100.00,SW,225,2.0,-999.0,98,-99.99,,,-99.99,0.000000,,2013-10-04 09:00:00,
2013-10-04 05:51:00,65.0,64.0,-100.00,SW,225,2.0,-999.0,98,-99.99,,,-99.99,0.000000,,2013-10-04 09:51:00,
2013-10-04 07:00:00,65.0,65.0,-100.00,South,180,2.0,-999.0,99,-99.99,,,-99.99,0.000000,,2013-10-04 11:00:00,
2013-10-04 07:51:00,65.0,65.0,-100.00,South,180,2.0,-999.0,99,-99.99,,,-99.99,0.000000,,2013-10-04 11:51:00,
2013-10-04 08:00:00,64.0,64.0,-100.00,SSE,157,1.0,-999.0,100,-99.99,,,-99.99,1.160000,,2013-10-04 12:00:00,
2013-10-04 08:51:00,64.0,64.0,-100.00,SSE,157,1.0,-999.0,100,-99.99,,,-99.99,1.160000,,2013-10-04 12:51:00,
2013-10-04 09:00:00,65.0,65.0,-100.00,SSE,157,3.0,-999.0,99,-99.99,,,-99.99,71.919998,,2013-10-04 13:00:00,
2013-10-04 09:50:00,65.0,65.0,-100.00,SSE,157,3.0,-999.0,99,-99.99,,,-99.99,71.919998,,2013-10-04 13:50:00,
2013-10-04 09:59:00,65.0,65.0,-100.00,SSE,157,3.0,-999.0,99,-99.99,,,-99.99,71.919998,,2013-10-04 13:59:00,
2013-10-04 10:00:00,67.0,65.0,-100.00,South,180,5.0,-999.0,93,-99.99,,,-99.99,122.959999,,2013-10-04 14:00:00,
2013-10-04 10:51:00,67.0,65.0,-100.00,South,180,5.0,-999.0,93,-99.99,,,-99.99,122.959999,,2013-10-04 14:51:00,
2013-10-04 11:00:00,69.0,66.0,-100.00,WSW,247,2.0,-999.0,90,-99.99,,,-99.99,132.240005,,2013-10-04 15:00:00,
2013-10-04 11:51:00,69.0,66.0,-100.00,WSW,247,2.0,-999.0,90,-99.99,,,-99.99,132.240005,,2013-10-04 15:51:00,
2013-10-04 13:00:00,74.0,68.0,-100.00,SW,225,4.0,-999.0,81,-99.99,,,-99.99,480.239990,,2013-10-04 17:00:00,
2013-10-04 15:00:00,78.0,68.0,-100.00,South,180,4.0,-999.0,71,-99.99,,,-99.99,368.880005,,2013-10-04 19:00:00,
2013-10-04 15:43:00,78.0,68.0,-100.00,South,180,4.0,-999.0,71,-99.99,,,-99.99,368.880005,,2013-10-04 19:43:00,
2013-10-04 15:52:00,78.0,68.0,-100.00,South,180,4.0,-999.0,71,-99.99,,,-99.99,368.880005,,2013-10-04 19:52:00,
2013-10-04 16:00:00,78.0,69.0,-100.00,SSW,202,3.0,-999.0,73,-99.99,,,-99.99,345.679993,,2013-10-04 20:00:00,
2013-10-04 16:43:00,78.0,69.0,-100.00,SSW,202,3.0,-999.0,73,-99.99,,,-99.99,345.679993,,2013-10-04 20:43:00,
2013-10-04 16:53:00,78.0,69.0,-100.00,SSW,202,3.0,-999.0,73,-99.99,,,-99.99,345.679993,,2013-10-04 20:53:00,
2013-10-04 17:00:00,77.0,69.0,-100.00,WSW,247,1.0,-999.0,77,-99.99,,,-99.99,148.479996,,2013-10-04 21:00:00,
2013-10-04 17:43:00,77.0,69.0,-100.00,WSW,247,1.0,-999.0,77,-99.99,,,-99.99,148.479996,,2013-10-04 21:43:00,
2013-10-04 17:54:00,77.0,69.0,-100.00,WSW,247,1.0,-999.0,77,-99.99,,,-99.99,148.479996,,2013-10-04 21:54:00,
2013-10-04 19:00:00,74.0,69.0,-100.00,West,270,4.0,-999.0,85,-99.99,,,-99.99,61.480000,,2013-10-04 23:00:00,
2013-10-04 19:42:00,74.0,69.0,-100.00,West,270,4.0,-999.0,85,-99.99,,,-99.99,61.480000,,2013-10-04 23:42:00,
2013-10-04 19:53:00,74.0,69.0,-100.00,West,270,4.0,-999.0,85,-99.99,,,-99.99,61.480000,,2013-10-04 23:53:00,
2013-10-04 20:00:00,69.0,67.0,-100.00,ENE,67,1.0,-999.0,92,-99.99,,,-99.99,3.480000,,2013-10-05 00:00:00,
2013-10-04 20:42:00,69.0,67.0,-100.00,ENE,67,1.0,-999.0,92,-99.99,,,-99.99,3.480000,,2013-10-05 00:42:00,
2013-10-04 20:53:00,69.0,67.0,-100.00,ENE,67,1.0,-999.0,92,-99.99,,,-99.99,3.480000,,2013-10-05 00:53:00,
2013-10-04 22:00:00,68.0,68.0,-100.00,NE,45,1.0,-999.0,100,-99.99,,,-99.99,0.000000,,2013-10-05 02:00:00,
2013-10-04 22:42:00,68.0,68.0,-100.00,NE,45,1.0,-999.0,100,-99.99,,,-99.99,0.000000,,2013-10-05 02:42:00,
2013-10-04 22:52:00,68.0,68.0,-100.00,NE,45,1.0,-999.0,100,-99.99,,,-99.99,0.000000,,2013-10-05 02:52:00,